Time;durP1;ratioP1;P1;durP2;ratioP2;P2;SDS_P1;SDS_P2;PMS_P1;PMS_P2;Temp;Humidity;BMP_temperature;BMP_pressure;BME280_temperature;BME280_humidity;BME280_pressure;Samples;Min_cycle;Max_cycle;Signal;HPM_P1;HPM_P2
2022/04/21 00:00:18;;;;;;;9.23;8.53;;;;;;;6.08;100.00;96520.50;4933872;28;20230;-56
2022/04/21 00:02:46;;;;;;;8.73;8.03;;;;;;;6.08;100.00;96513.44;4936608;28;20316;-59
2022/04/21 00:05:15;;;;;;;8.67;7.93;;;;;;;6.04;100.00;96520.03;4916002;28;20228;-57
2022/04/21 00:07:43;;;;;;;8.73;8.03;;;;;;;5.97;100.00;96526.94;4941394;28;20249;-57
2022/04/21 00:10:12;;;;;;;8.13;7.53;;;;;;;6.04;100.00;96520.03;4946128;28;20341;-56
2022/04/21 00:12:40;;;;;;;8.07;7.37;;;;;;;6.08;100.00;96510.78;4943220;28;20291;-57
2022/04/21 00:15:11;;;;;;;9.20;8.40;;;;;;;6.07;100.00;96510.97;4937364;28;20242;-55
2022/04/21 00:17:40;;;;;;;8.37;7.77;;;;;;;6.07;100.00;96509.16;4940674;28;20680;-58
2022/04/21 00:20:10;;;;;;;8.80;8.10;;;;;;;6.07;100.00;96509.16;4942574;28;20825;-55
2022/04/21 00:25:24;;;;;;;8.40;7.53;;;;;;;5.94;100.00;96516.75;4944226;28;20246;-59
2022/04/21 00:27:53;;;;;;;8.00;7.40;;;;;;;5.96;100.00;96514.78;4941400;28;20400;-57
2022/04/21 00:30:22;;;;;;;8.47;7.77;;;;;;;5.91;100.00;96517.09;4935850;28;20306;-58
2022/04/21 00:32:51;;;;;;;8.43;7.73;;;;;;;5.91;100.00;96517.91;4942368;28;20228;-57
2022/04/21 00:35:25;;;;;;;7.60;7.00;;;;;;;5.98;100.00;96515.41;4946834;28;20210;-58
2022/04/21 00:37:54;;;;;;;9.33;8.53;;;;;;;5.89;100.00;96521.72;4909397;28;20541;-56
2022/04/21 00:40:26;;;;;;;8.20;7.60;;;;;;;5.94;100.00;96508.88;4940851;28;20308;-58
2022/04/21 00:42:55;;;;;;;7.70;7.10;;;;;;;5.92;100.00;96501.13;4945887;28;20821;-58
2022/04/21 00:45:25;;;;;;;9.43;8.33;;;;;;;5.87;100.00;96500.84;4945375;28;20297;-59
2022/04/21 00:47:55;;;;;;;8.70;8.00;;;;;;;5.80;100.00;96507.78;4941040;28;20206;-57
2022/04/21 00:50:25;;;;;;;9.73;8.83;;;;;;;5.80;100.00;96505.94;4944148;28;21329;-57
2022/04/21 00:52:55;;;;;;;8.10;7.50;;;;;;;5.78;100.00;96486.91;4915177;28;20617;-56
2022/04/21 00:55:23;;;;;;;7.87;7.17;;;;;;;5.74;100.00;96498.75;4942224;28;20199;-57
2022/04/21 00:57:54;;;;;;;8.20;7.60;;;;;;;5.90;100.00;96494.44;4943448;28;20295;-56
2022/04/21 01:00:24;;;;;;;8.47;7.87;;;;;;;5.85;100.00;96499.34;4938153;28;20230;-56
2022/04/21 01:02:52;;;;;;;8.33;7.70;;;;;;;5.78;100.00;96502.66;4947977;28;20963;-56
2022/04/21 01:05:33;;;;;;;11.43;10.53;;;;;;;5.88;100.00;96491.16;4950236;28;20207;-56
2022/04/21 01:08:03;;;;;;;8.23;7.57;;;;;;;5.88;100.00;96496.41;4944914;28;20236;-56
2022/04/21 01:10:33;;;;;;;9.67;8.77;;;;;;;5.75;100.00;96495.13;4912800;28;20734;-56
2022/04/21 01:13:04;;;;;;;8.17;7.47;;;;;;;5.82;100.00;96492.66;4944930;28;20540;-56
2022/04/21 01:15:34;;;;;;;8.60;8.00;;;;;;;5.73;100.00;96486.59;4933681;28;20290;-58
2022/04/21 01:18:02;;;;;;;9.20;8.40;;;;;;;5.78;100.00;96486.09;4945916;28;20234;-57
2022/04/21 01:20:32;;;;;;;9.60;8.80;;;;;;;5.75;100.00;96491.69;4943122;28;20282;-58
2022/04/21 01:23:00;;;;;;;8.83;8.03;;;;;;;5.74;100.00;96487.44;4939676;28;20222;-53
2022/04/21 01:25:37;;;;;;;9.77;8.97;;;;;;;5.63;100.00;96492.03;4912485;28;20331;-54
2022/04/21 01:28:06;;;;;;;10.20;9.27;;;;;;;5.72;100.00;96497.28;4947941;28;20257;-56
2022/04/21 01:30:34;;;;;;;9.57;8.77;;;;;;;5.65;100.00;96494.50;4943794;28;20595;-55
2022/04/21 01:33:02;;;;;;;8.43;7.83;;;;;;;5.71;100.00;96485.94;4939910;28;20820;-54
2022/04/21 01:35:32;;;;;;;8.43;7.80;;;;;;;5.73;100.00;96497.09;4947150;28;20691;-61
2022/04/21 01:43:37;;;;;;;8.70;8.00;;;;;;;5.60;100.00;96484.50;4931606;28;20752;-58
2022/04/21 01:46:06;;;;;;;9.00;8.30;;;;;;;5.55;100.00;96478.94;4942539;28;20782;-58
2022/04/21 01:48:34;;;;;;;9.17;8.37;;;;;;;5.52;100.00;96478.47;4938558;28;20300;-59
2022/04/21 01:51:04;;;;;;;8.30;7.60;;;;;;;5.51;100.00;96475.00;4943638;28;20246;-59
2022/04/21 01:53:32;;;;;;;9.07;8.27;;;;;;;5.46;100.00;96467.63;4923213;28;20294;-59
2022/04/21 01:56:00;;;;;;;8.57;7.87;;;;;;;5.35;100.00;96470.63;4909525;28;20782;-57
2022/04/21 01:58:28;;;;;;;9.00;8.30;;;;;;;5.28;100.00;96465.22;4945518;28;20209;-58
2022/04/21 02:00:56;;;;;;;9.40;8.67;;;;;;;5.35;100.00;96460.94;4949443;28;21422;-56
2022/04/21 02:03:24;;;;;;;10.30;9.40;;;;;;;5.31;100.00;96466.69;4925065;28;21173;-57
2022/04/21 02:05:52;;;;;;;10.77;9.50;;;;;;;5.38;100.00;96472.09;4943166;28;20211;-55
2022/04/21 02:08:21;;;;;;;10.43;9.63;;;;;;;5.27;100.00;96465.41;4948706;28;20206;-59
2022/04/21 02:10:49;;;;;;;9.57;8.77;;;;;;;5.24;100.00;96452.59;4905949;28;22561;-57
2022/04/21 02:13:17;;;;;;;10.60;9.77;;;;;;;5.19;100.00;96460.97;4948269;28;20203;-57
2022/04/21 02:15:45;;;;;;;8.83;8.03;;;;;;;5.20;100.00;96457.38;4940960;28;20503;-55
2022/04/21 02:18:14;;;;;;;9.03;8.23;;;;;;;5.27;100.00;96455.69;4934654;28;20211;-59
2022/04/21 02:20:42;;;;;;;10.13;9.33;;;;;;;5.21;100.00;96454.59;4942424;28;20227;-58
2022/04/21 02:23:10;;;;;;;11.20;10.10;;;;;;;5.15;100.00;96455.25;4927576;28;20225;-59
2022/04/21 02:25:39;;;;;;;10.03;9.23;;;;;;;5.16;100.00;96456.06;4946843;28;20783;-59
2022/04/21 02:28:09;;;;;;;9.90;8.87;;;;;;;5.10;100.00;96457.53;4912986;28;20622;-59
2022/04/21 02:30:37;;;;;;;11.07;9.97;;;;;;;5.10;100.00;96459.34;4946075;28;20253;-59
2022/04/21 02:33:05;;;;;;;10.30;9.17;;;;;;;5.14;100.00;96464.13;4942828;28;20207;-58
2022/04/21 02:35:33;;;;;;;9.93;9.13;;;;;;;5.10;100.00;96456.72;4935658;28;20925;-59
2022/04/21 02:38:01;;;;;;;10.13;9.33;;;;;;;5.06;100.00;96456.25;4944252;28;20212;-58
2022/04/21 02:40:30;;;;;;;11.17;10.23;;;;;;;5.04;100.00;96453.78;4942305;28;20823;-53
2022/04/21 02:42:59;;;;;;;11.87;10.77;;;;;;;5.02;100.00;96460.19;4913856;28;20241;-60
2022/04/21 02:45:27;;;;;;;10.93;10.03;;;;;;;4.98;100.00;96445.75;4939054;28;20210;-60
2022/04/21 02:47:55;;;;;;;11.70;10.50;;;;;;;4.94;100.00;96447.91;4948436;28;20207;-58
2022/04/21 02:50:24;;;;;;;10.73;9.83;;;;;;;4.86;100.00;96443.47;4926528;28;20718;-59
2022/04/21 02:52:53;;;;;;;10.53;9.63;;;;;;;4.83;100.00;96442.97;4941578;28;20766;-58
2022/04/21 02:58:08;;;;;;;10.50;9.53;;;;;;;4.75;100.00;96443.84;4902515;28;20223;-59
2022/04/21 03:00:36;;;;;;;10.03;9.23;;;;;;;4.67;100.00;96439.41;4947972;28;20258;-59
2022/04/21 03:03:04;;;;;;;9.97;9.23;;;;;;;4.58;100.00;96437.78;4942983;28;20206;-64
2022/04/21 03:05:32;;;;;;;10.73;9.93;;;;;;;4.48;100.00;96432.69;4932875;28;20291;-59
2022/04/21 03:08:00;;;;;;;10.40;9.50;;;;;;;4.37;100.00;96440.88;4948898;28;20206;-57
2022/04/21 03:10:28;;;;;;;11.07;10.07;;;;;;;4.35;100.00;96436.59;4944241;28;20309;-59
2022/04/21 03:12:58;;;;;;;10.67;9.67;;;;;;;4.22;100.00;96441.50;4909426;28;20360;-60
2022/04/21 03:15:27;;;;;;;11.70;10.63;;;;;;;4.15;100.00;96438.69;4947354;28;20292;-55
2022/04/21 03:17:56;;;;;;;14.07;12.57;;;;;;;4.01;100.00;96441.97;4945052;28;20263;-57
2022/04/21 03:25:55;;;;;;;10.93;10.03;;;;;;;3.85;100.00;96435.72;4944538;28;20212;-55
2022/04/21 03:28:23;;;;;;;10.83;10.03;;;;;;;3.77;100.00;96433.03;4906490;28;20225;-58
2022/04/21 03:30:53;;;;;;;11.77;10.73;;;;;;;3.75;100.00;96427.97;4943715;28;20340;-53
2022/04/21 03:33:21;;;;;;;11.90;10.80;;;;;;;3.64;100.00;96427.44;4944416;28;20230;-55
2022/04/21 03:35:49;;;;;;;11.03;10.10;;;;;;;3.55;100.00;96429.22;4933889;28;20222;-59
2022/04/21 03:38:17;;;;;;;10.90;9.90;;;;;;;3.49;100.00;96428.06;4945106;28;20606;-58
2022/04/21 03:40:45;;;;;;;11.40;10.40;;;;;;;3.45;100.00;96422.31;4945759;28;20670;-56
2022/04/21 03:43:13;;;;;;;10.67;9.67;;;;;;;3.38;100.00;96423.09;4908249;28;20229;-56
2022/04/21 03:45:41;;;;;;;10.90;10.00;;;;;;;3.35;100.00;96423.41;4944582;28;20483;-57
2022/04/21 03:48:10;;;;;;;12.07;11.07;;;;;;;3.29;100.00;96419.63;4941259;28;20207;-54
2022/04/21 03:50:39;;;;;;;11.07;10.10;;;;;;;3.25;100.00;96431.41;4932812;28;21245;-55
2022/04/21 03:53:07;;;;;;;11.50;10.50;;;;;;;3.26;100.00;96425.19;4949157;28;20225;-57
2022/04/21 03:55:35;;;;;;;12.20;10.90;;;;;;;3.24;100.00;96427.94;4943288;28;21119;-58
2022/04/21 03:58:03;;;;;;;12.07;11.03;;;;;;;3.24;100.00;96429.75;4909142;28;20531;-58
2022/04/21 04:00:31;;;;;;;12.47;10.90;;;;;;;3.27;100.00;96416.34;4943267;28;20424;-63
2022/04/21 04:02:59;;;;;;;12.57;11.40;;;;;;;3.24;100.00;96417.47;4944791;28;20695;-56
2022/04/21 04:05:29;;;;;;;13.43;12.07;;;;;;;3.30;100.00;96418.66;4925875;28;20440;-57
2022/04/21 04:13:25;;;;;;;12.40;11.30;;;;;;;3.34;100.00;96414.75;4911506;28;20210;-57
2022/04/21 04:15:56;;;;;;;12.57;11.47;;;;;;;3.38;100.00;96408.22;4950480;28;20298;-54
2022/04/21 04:18:24;;;;;;;12.10;10.93;;;;;;;3.37;100.00;96411.81;4948855;28;20220;-56
2022/04/21 04:20:54;;;;;;;12.67;11.20;;;;;;;3.33;100.00;96407.88;4948617;28;21132;-57
2022/04/21 04:23:22;;;;;;;13.43;12.23;;;;;;;3.26;100.00;96417.34;4930291;28;20224;-56
2022/04/21 04:25:50;;;;;;;12.30;11.20;;;;;;;3.25;100.00;96415.69;4951950;28;20203;-56
2022/04/21 04:28:18;;;;;;;12.63;11.27;;;;;;;3.21;100.00;96414.34;4924470;28;20262;-58
2022/04/21 04:30:47;;;;;;;12.20;11.20;;;;;;;3.22;100.00;96426.44;4934521;28;20673;-57
2022/04/21 04:33:16;;;;;;;10.37;9.47;;;;;;;3.26;100.00;96417.34;4948466;28;20211;-59
2022/04/21 04:35:44;;;;;;;12.10;10.87;;;;;;;3.26;100.00;96415.53;4942892;28;20342;-58
2022/04/21 04:38:14;;;;;;;13.23;12.03;;;;;;;3.19;100.00;96419.75;4937140;28;20629;-57
2022/04/21 04:40:42;;;;;;;11.27;10.20;;;;;;;3.19;100.00;96407.47;4946194;28;20425;-59
2022/04/21 04:43:09;;;;;;;12.47;11.23;;;;;;;3.24;100.00;96408.81;4944753;28;20367;-62
2022/04/21 04:48:22;;;;;;;11.57;10.57;;;;;;;3.18;100.00;96410.25;4942542;28;20237;-57
2022/04/21 04:50:50;;;;;;;11.57;10.47;;;;;;;3.13;100.00;96412.53;4946079;28;20317;-55
2022/04/21 04:53:20;;;;;;;12.63;11.47;;;;;;;3.10;100.00;96415.44;4930592;28;20207;-58
2022/04/21 04:55:48;;;;;;;11.90;10.87;;;;;;;3.09;100.00;96406.75;4948729;28;20260;-58
2022/04/21 04:58:16;;;;;;;12.97;11.77;;;;;;;3.11;100.00;96414.47;4948140;28;20210;-59
2022/04/21 05:00:47;;;;;;;12.33;11.33;;;;;;;3.11;100.00;96411.88;4911686;28;20237;-60
2022/04/21 05:03:18;;;;;;;12.97;11.87;;;;;;;3.10;100.00;96411.03;4945862;28;20207;-59
2022/04/21 05:05:46;;;;;;;12.33;11.33;;;;;;;3.15;100.00;96414.00;4945094;28;20210;-56
2022/04/21 05:08:14;;;;;;;13.13;12.03;;;;;;;3.24;100.00;96414.84;4931895;28;20214;-59
2022/04/21 05:10:43;;;;;;;13.03;11.73;;;;;;;3.27;100.00;96418.97;4950257;28;20357;-60
2022/04/21 05:13:11;;;;;;;11.97;10.87;;;;;;;3.33;100.00;96413.91;4950224;28;20301;-58
2022/04/21 05:15:39;;;;;;;12.87;11.77;;;;;;;3.40;100.00;96415.91;4911165;28;20341;-57
2022/04/21 05:18:08;;;;;;;12.63;11.33;;;;;;;3.48;100.00;96411.50;4949691;28;20206;-60
2022/04/21 05:20:37;;;;;;;14.13;12.83;;;;;;;3.61;100.00;96418.13;4941628;28;20534;-59
2022/04/21 05:23:06;;;;;;;12.37;11.27;;;;;;;3.73;100.00;96408.16;4952404;28;20210;-56
2022/04/21 05:25:37;;;;;;;12.27;11.00;;;;;;;3.90;100.00;96416.88;4933219;28;21008;-59
2022/04/21 05:28:09;;;;;;;12.47;11.37;;;;;;;4.12;100.00;96412.81;4947792;28;20325;-56
2022/04/21 05:30:55;;;;;;;13.17;11.80;;;;;;;4.21;100.00;96421.50;4905803;28;20982;-58
2022/04/21 05:33:25;;;;;;;12.27;11.17;;;;;;;4.43;100.00;96406.13;4943127;28;20351;-58
2022/04/21 05:35:54;;;;;;;12.03;10.93;;;;;;;4.57;100.00;96412.53;4944203;28;20257;-58
2022/04/21 05:38:23;;;;;;;12.73;11.60;;;;;;;4.61;100.00;96416.44;4938935;28;20588;-57
2022/04/21 05:40:52;;;;;;;12.27;11.07;;;;;;;4.88;100.00;96412.63;4950093;28;20713;-59
2022/04/21 05:43:23;;;;;;;11.33;10.23;;;;;;;4.98;100.00;96414.25;4944945;28;20900;-59
2022/04/21 05:45:51;;;;;;;12.17;11.07;;;;;;;5.08;100.00;96417.50;4910456;28;20210;-59
2022/04/21 05:48:20;;;;;;;10.30;9.50;;;;;;;5.28;100.00;96419.75;4941747;28;20210;-60
2022/04/21 05:50:49;;;;;;;11.00;10.07;;;;;;;5.42;100.00;96418.25;4943615;28;20600;-59
2022/04/21 05:53:22;;;;;;;11.07;10.17;;;;;;;5.40;100.00;96417.59;4942160;28;20630;-58
2022/04/21 05:55:51;;;;;;;10.93;9.90;;;;;;;5.47;100.00;96415.91;4945227;28;20737;-59
2022/04/21 05:58:22;;;;;;;10.50;9.60;;;;;;;5.58;100.00;96425.22;4943014;28;20210;-60
2022/04/21 06:00:51;;;;;;;10.30;9.30;;;;;;;5.59;100.00;96416.38;4945332;28;20672;-57
2022/04/21 06:03:25;;;;;;;11.23;10.23;;;;;;;5.60;100.00;96425.88;4906772;28;20839;-57
2022/04/21 06:05:53;;;;;;;11.47;10.40;;;;;;;5.70;100.00;96421.22;4947571;28;20206;-58
2022/04/21 06:08:21;;;;;;;10.77;9.90;;;;;;;5.86;100.00;96420.31;4941641;28;20203;-56
2022/04/21 06:10:50;;;;;;;11.13;10.03;;;;;;;5.95;100.00;96421.09;4937236;28;20681;-59
2022/04/21 06:13:18;;;;;;;9.97;9.17;;;;;;;6.04;100.00;96421.88;4942276;28;20210;-58
2022/04/21 06:15:47;;;;;;;11.93;10.80;;;;;;;6.27;100.00;96429.81;4940465;28;20233;-60
2022/04/21 06:18:15;;;;;;;10.50;9.60;;;;;;;6.21;100.00;96420.81;4911571;28;20215;-58
2022/04/21 06:20:43;;;;;;;10.37;9.37;;;;;;;6.39;100.00;96427.56;4945410;28;20421;-60
2022/04/21 06:23:11;;;;;;;10.57;9.77;;;;;;;6.38;100.00;96428.56;4941737;28;20213;-58
2022/04/21 06:25:42;;;;;;;10.30;9.30;;;;;;;6.49;100.00;96422.06;4933263;28;23023;-60
2022/04/21 06:28:10;;;;;;;10.73;9.83;;;;;;;6.44;100.00;96421.78;4944668;28;20755;-59
2022/04/21 06:30:38;;;;;;;10.17;9.37;;;;;;;6.58;100.00;96422.84;4941706;28;20437;-59
2022/04/21 06:33:08;;;;;;;11.50;10.50;;;;;;;6.83;100.00;96423.44;4912399;28;20739;-55
2022/04/21 06:35:36;;;;;;;11.67;10.43;;;;;;;6.99;100.00;96432.16;4936301;28;20317;-60
2022/04/21 06:38:04;;;;;;;10.43;9.53;;;;;;;6.69;100.00;96427.66;4938420;28;20206;-59
2022/04/21 06:40:32;;;;;;;10.17;9.17;;;;;;;6.79;100.00;96424.78;4932060;28;20254;-59
2022/04/21 06:43:03;;;;;;;9.67;8.87;;;;;;;6.86;100.00;96430.97;4942831;28;20489;-58
2022/04/21 06:48:25;;;;;;;10.90;9.97;;;;;;;7.02;100.00;96430.00;4909275;28;20213;-60
2022/04/21 06:50:55;;;;;;;10.83;9.80;;;;;;;7.09;100.00;96430.91;4943108;28;20218;-57
2022/04/21 06:53:23;;;;;;;10.27;9.27;;;;;;;7.22;100.00;96437.38;4943457;28;20301;-58
2022/04/21 06:55:51;;;;;;;10.83;9.90;;;;;;;7.44;100.00;96433.03;4938182;28;20292;-55
2022/04/21 06:58:19;;;;;;;9.53;8.73;;;;;;;7.52;100.00;96430.28;4934576;28;20218;-58
2022/04/21 07:00:48;;;;;;;9.80;9.00;;;;;;;7.44;100.00;96432.19;4940361;28;20607;-59
2022/04/21 07:03:16;;;;;;;10.43;9.43;;;;;;;7.49;100.00;96425.38;4945144;28;20293;-58
2022/04/21 07:05:45;;;;;;;10.20;9.17;;;;;;;7.73;100.00;96435.81;4913088;28;20853;-56
2022/04/21 07:08:14;;;;;;;10.93;9.83;;;;;;;7.48;100.00;96429.03;4943969;28;20207;-59
2022/04/21 07:10:42;;;;;;;9.87;9.07;;;;;;;7.80;100.00;96436.69;4939216;28;20445;-59
2022/04/21 07:13:11;;;;;;;9.73;8.83;;;;;;;7.99;100.00;96431.84;4939339;28;20209;-57
2022/04/21 07:15:40;;;;;;;10.23;9.37;;;;;;;8.15;100.00;96428.97;4939941;28;20322;-57
2022/04/21 07:18:09;;;;;;;9.77;8.97;;;;;;;8.03;100.00;96423.38;4944146;28;20202;-57
2022/04/21 07:20:37;;;;;;;9.50;8.60;;;;;;;8.31;100.00;96425.28;4908941;28;20697;-57
2022/04/21 07:23:07;;;;;;;9.47;8.63;;;;;;;8.45;100.00;96425.41;4942194;28;20285;-59
2022/04/21 07:25:35;;;;;;;9.43;8.63;;;;;;;8.64;100.00;96424.81;4938380;28;20728;-61
2022/04/21 07:28:03;;;;;;;9.43;8.63;;;;;;;8.76;100.00;96430.38;4935612;28;20605;-57
2022/04/21 07:30:31;;;;;;;9.13;8.27;;;;;;;8.72;100.00;96428.31;4940832;28;20783;-59
2022/04/21 07:33:00;;;;;;;8.83;8.10;;;;;;;8.79;100.00;96424.72;4945151;28;20293;-54
2022/04/21 07:35:29;;;;;;;9.40;8.60;;;;;;;8.98;100.00;96422.41;4939346;28;20433;-60
2022/04/21 07:38:00;;;;;;;8.57;7.87;;;;;;;9.03;100.00;96425.28;4910319;28;20674;-57
2022/04/21 07:40:30;;;;;;;9.60;8.80;;;;;;;8.88;100.00;96433.31;4939313;28;20426;-58
2022/04/21 07:43:02;;;;;;;9.30;8.50;;;;;;;8.62;100.00;96421.53;4937744;28;20256;-60
2022/04/21 07:45:32;;;;;;;8.77;8.07;;;;;;;8.82;100.00;96428.78;4942253;28;20484;-61
2022/04/21 07:48:00;;;;;;;9.03;8.33;;;;;;;8.93;100.00;96425.63;4938857;28;20294;-56
2022/04/21 07:50:28;;;;;;;9.00;8.13;;;;;;;9.29;100.00;96428.31;4939053;28;20222;-54
2022/04/21 07:53:19;;;;;;;8.47;7.80;;;;;;;9.64;100.00;96429.09;4902864;28;20210;-57
2022/04/21 07:55:50;;;;;;;9.57;8.67;;;;;;;10.09;100.00;96417.25;4944033;28;20237;-53
2022/04/21 07:58:19;;;;;;;8.93;8.23;;;;;;;10.28;100.00;96420.94;4930961;28;20509;-55
2022/04/21 08:00:47;;;;;;;9.13;8.43;;;;;;;10.35;100.00;96416.47;4944263;28;20234;-54
2022/04/21 08:03:18;;;;;;;8.30;7.60;;;;;;;10.47;100.00;96426.53;4938990;28;20207;-58
2022/04/21 08:05:47;;;;;;;9.90;8.97;;;;;;;10.23;100.00;96424.22;4943372;28;20688;-58
2022/04/21 08:08:15;;;;;;;8.17;7.43;;;;;;;10.36;100.00;96415.47;4903951;28;20724;-56
2022/04/21 08:10:43;;;;;;;9.13;8.33;;;;;;;10.42;100.00;96416.53;4940434;28;20502;-59
2022/04/21 08:13:17;;;;;;;9.10;8.33;;;;;;;10.56;100.00;96414.72;4929601;28;20305;-57
2022/04/21 08:15:48;;;;;;;10.93;8.23;;;;;;;11.18;100.00;96416.31;4942565;28;20233;-59
2022/04/21 08:18:16;;;;;;;8.70;8.10;;;;;;;11.46;98.96;96405.44;4943317;28;20802;-57
2022/04/21 08:20:46;;;;;;;9.67;8.77;;;;;;;11.26;95.58;96408.13;4945214;28;20230;-58
2022/04/21 08:23:14;;;;;;;9.13;7.80;;;;;;;11.13;100.00;96403.66;4908540;28;20537;-60
2022/04/21 08:34:25;;;;;;;8.83;8.20;;;;;;;11.54;100.00;96399.88;4939534;28;20410;-61
2022/04/21 08:36:59;;;;;;;7.53;6.93;;;;;;;11.35;94.65;96395.47;4942370;28;20258;-57
2022/04/21 08:39:27;;;;;;;8.63;7.93;;;;;;;11.33;95.93;96392.22;4911298;28;20436;-60
2022/04/21 08:41:59;;;;;;;8.63;8.00;;;;;;;11.32;96.26;96395.91;4940700;28;20234;-55
2022/04/21 08:44:30;;;;;;;8.77;8.07;;;;;;;11.14;96.28;96398.19;4938641;28;20523;-61
2022/04/21 08:46:59;;;;;;;8.63;7.97;;;;;;;11.28;97.54;96391.00;4934935;28;20222;-57
2022/04/21 08:49:33;;;;;;;7.17;6.67;;;;;;;11.25;94.09;96388.78;4941332;28;20294;-54
2022/04/21 08:52:01;;;;;;;7.90;7.30;;;;;;;11.19;88.66;96386.13;4941304;28;20240;-59
2022/04/21 08:54:30;;;;;;;6.93;6.40;;;;;;;11.65;88.15;96387.81;4907457;28;20908;-58
2022/04/21 08:56:59;;;;;;;7.03;6.17;;;;;;;11.86;81.13;96378.75;4946601;28;20280;-57
2022/04/21 08:59:29;;;;;;;7.40;6.80;;;;;;;11.90;80.95;96381.78;4938248;28;20616;-60
2022/04/21 09:01:59;;;;;;;6.90;6.30;;;;;;;12.39;80.32;96386.63;4933523;28;20235;-58
2022/04/21 09:04:30;;;;;;;6.53;5.93;;;;;;;12.39;61.07;96387.47;4945715;28;20225;-58
2022/04/21 09:07:14;;;;;;;6.47;5.97;;;;;;;12.55;61.09;96387.97;4946020;28;20235;-57
2022/04/21 09:10:01;;;;;;;6.60;6.10;;;;;;;12.59;57.67;96391.81;4944998;28;20202;-57
2022/04/21 09:12:29;;;;;;;6.70;6.13;;;;;;;12.40;56.52;96389.09;4925597;28;20543;-58
2022/04/21 09:14:58;;;;;;;6.57;5.97;;;;;;;12.76;56.81;96385.97;4943398;28;20237;-57
2022/04/21 09:17:26;;;;;;;6.00;5.60;;;;;;;12.69;54.77;96389.50;4934489;28;20260;-56
2022/04/21 09:19:59;;;;;;;5.80;5.40;;;;;;;12.72;52.84;96386.41;4947870;28;20294;-59
2022/04/21 09:22:32;;;;;;;7.03;6.43;;;;;;;12.65;49.19;96390.94;4940704;28;20768;-59
2022/04/21 09:25:01;;;;;;;6.57;6.03;;;;;;;12.93;52.14;96379.06;4942432;28;20202;-60
2022/04/21 09:27:48;;;;;;;7.03;6.50;;;;;;;13.12;52.44;96379.91;4906685;28;20211;-61
2022/04/21 09:30:18;;;;;;;7.10;6.50;;;;;;;13.02;50.23;96375.06;4941872;28;20242;-59
2022/04/21 09:32:54;;;;;;;7.23;6.70;;;;;;;12.96;51.75;96378.63;4938026;28;20577;-62
2022/04/21 09:35:23;;;;;;;6.43;5.93;;;;;;;13.12;52.56;96376.44;4944823;28;20715;-59
2022/04/21 09:37:53;;;;;;;7.00;6.30;;;;;;;12.73;54.47;96374.75;4946155;28;20562;-61
2022/04/21 09:40:23;;;;;;;6.50;6.00;;;;;;;12.81;57.47;96373.63;4941744;28;20346;-58
2022/04/21 09:42:55;;;;;;;6.23;5.83;;;;;;;13.30;55.87;96367.66;4905537;28;20588;-58
2022/04/21 09:48:20;;;;;;;7.00;6.40;;;;;;;13.44;53.10;96360.34;4930941;28;20207;-60
2022/04/21 09:50:53;;;;;;;6.23;5.73;;;;;;;13.08;52.29;96364.63;4947857;28;20227;-59
2022/04/21 09:53:23;;;;;;;9.30;6.77;;;;;;;13.25;51.78;96362.16;4942085;28;20516;-55
2022/04/21 09:55:52;;;;;;;6.30;5.80;;;;;;;13.42;55.31;96357.94;4944977;28;20295;-59
2022/04/21 09:58:20;;;;;;;7.07;6.40;;;;;;;13.65;52.34;96358.28;4900018;28;20634;-56
2022/04/21 10:00:49;;;;;;;7.23;6.20;;;;;;;13.81;52.77;96362.16;4944347;28;20232;-59
2022/04/21 10:03:18;;;;;;;7.20;6.60;;;;;;;13.55;52.26;96361.44;4929163;28;20831;-57
2022/04/21 10:05:46;;;;;;;7.07;6.47;;;;;;;13.70;52.39;96353.91;4948613;28;20812;-58
2022/04/21 10:08:14;;;;;;;6.90;6.40;;;;;;;13.96;52.01;96354.59;4940858;28;20619;-59
2022/04/21 10:10:47;;;;;;;6.53;6.03;;;;;;;14.06;50.01;96355.91;4943311;28;20317;-57
2022/04/21 10:13:15;;;;;;;6.27;5.77;;;;;;;14.40;48.86;96350.91;4895867;28;20215;-58
2022/04/21 10:15:43;;;;;;;7.00;6.50;;;;;;;14.53;48.82;96344.53;4947977;28;20241;-59
2022/04/21 10:18:15;;;;;;;6.63;6.13;;;;;;;14.39;48.68;96344.75;4936898;28;20237;-58
2022/04/21 10:20:44;;;;;;;6.50;5.97;;;;;;;15.27;46.40;96344.09;4932286;28;20227;-60
2022/04/21 10:23:17;;;;;;;6.87;6.30;;;;;;;15.47;46.53;96335.69;4937684;28;20219;-59
2022/04/21 10:25:45;;;;;;;6.53;6.13;;;;;;;15.23;45.45;96336.81;4943642;28;20214;-59
2022/04/21 10:28:35;;;;;;;6.00;5.60;;;;;;;14.69;47.53;96327.03;4909070;28;20225;-59
2022/04/21 10:31:33;;;;;;;5.87;5.47;;;;;;;14.60;48.01;96326.59;4943225;28;20396;-58
2022/04/21 10:34:04;;;;;;;5.57;5.07;;;;;;;14.65;47.22;96337.38;4939820;28;20206;-59
2022/04/21 10:36:41;;;;;;;5.77;5.27;;;;;;;14.76;45.93;96330.44;4932215;28;20214;-59
2022/04/21 10:39:24;;;;;;;5.20;4.90;;;;;;;14.80;45.82;96326.28;4942827;28;20347;-58
2022/04/21 10:42:12;;;;;;;4.50;4.20;;;;;;;15.01;45.60;96322.22;4944710;28;20234;-60
2022/04/21 10:44:45;;;;;;;5.37;4.97;;;;;;;15.19;44.27;96320.44;4904676;28;20683;-60
2022/04/21 10:47:46;;;;;;;5.40;4.30;;;;;;;15.13;45.26;96318.72;4934921;28;20217;-57
2022/04/21 10:50:18;;;;;;;4.90;4.60;;;;;;;14.98;45.41;96317.34;4881445;29;20268;-59
2022/04/21 10:58:54;;;;;;;5.67;5.17;;;;;;;15.22;45.28;96309.28;4848072;29;20575;-56
2022/04/21 11:01:32;;;;;;;4.60;4.20;;;;;;;15.46;43.64;96309.25;4880035;29;20229;-56
2022/04/21 11:04:19;;;;;;;5.80;5.40;;;;;;;15.23;44.82;96305.59;4886290;29;20440;-57
2022/04/21 11:07:06;;;;;;;5.40;5.00;;;;;;;15.27;44.48;96309.41;4875875;29;20213;-55
2022/04/21 11:09:46;;;;;;;5.37;4.87;;;;;;;15.00;44.99;96301.94;4882581;29;20367;-59
2022/04/21 11:12:45;;;;;;;5.30;4.87;;;;;;;14.60;45.03;96302.59;4885805;29;20209;-60
2022/04/21 11:15:33;;;;;;;6.40;5.90;;;;;;;14.30;45.56;96290.19;4849537;29;20216;-57
2022/04/21 11:18:06;;;;;;;5.50;5.00;;;;;;;14.74;45.54;96293.34;4887672;29;20265;-58
2022/04/21 11:20:34;;;;;;;5.13;4.77;;;;;;;14.81;45.73;96292.41;4900626;28;20476;-57
2022/04/21 11:23:03;;;;;;;5.40;5.00;;;;;;;14.86;46.42;96289.88;4934961;28;20302;-56
2022/04/21 11:25:32;;;;;;;5.43;5.00;;;;;;;15.19;44.56;96291.91;4940125;28;20243;-59
2022/04/21 11:28:01;;;;;;;4.83;4.47;;;;;;;15.19;44.91;96289.25;4942123;28;20207;-57
2022/04/21 11:30:30;;;;;;;4.90;4.50;;;;;;;15.11;44.28;96292.25;4902563;28;20534;-60
2022/04/21 11:32:59;;;;;;;5.20;4.67;;;;;;;15.13;43.94;96298.16;4943318;28;20211;-57
2022/04/21 11:35:27;;;;;;;4.97;4.63;;;;;;;14.58;44.82;96292.16;4942660;28;20443;-56
2022/04/21 11:37:57;;;;;;;4.93;4.63;;;;;;;14.53;45.23;96285.91;4934205;28;20234;-60
2022/04/21 11:40:35;;;;;;;4.63;4.33;;;;;;;14.27;45.22;96302.09;4942021;28;20226;-56
2022/04/21 11:43:05;;;;;;;5.43;5.03;;;;;;;14.14;46.23;96296.97;4940589;28;20659;-55
2022/04/21 11:45:36;;;;;;;5.17;4.77;;;;;;;14.41;46.14;96296.56;4910542;28;21896;-57
2022/04/21 11:48:15;;;;;;;4.77;4.37;;;;;;;14.52;45.30;96292.25;4941994;28;20303;-56
2022/04/21 11:50:45;;;;;;;5.07;4.67;;;;;;;14.90;44.80;96297.16;4945651;28;20437;-55
2022/04/21 11:53:17;;;;;;;4.80;4.40;;;;;;;14.98;44.97;96285.34;4934907;28;20210;-60
2022/04/21 11:55:47;;;;;;;4.67;4.30;;;;;;;14.97;44.76;96281.06;4940868;28;20754;-55
2022/04/21 11:58:26;;;;;;;4.50;4.20;;;;;;;15.19;43.87;96278.56;4939185;28;21024;-54
2022/04/21 12:06:37;;;;;;;4.90;4.60;;;;;;;15.54;44.24;96276.03;4942855;28;20203;-59
2022/04/21 12:09:05;;;;;;;4.50;4.20;;;;;;;15.84;43.10;96272.28;4931353;28;20264;-58
2022/04/21 12:11:35;;;;;;;4.90;4.60;;;;;;;15.99;42.68;96272.59;4943732;28;20250;-58
2022/04/21 12:14:03;;;;;;;4.40;4.00;;;;;;;16.39;41.16;96273.50;4938500;28;20206;-57
2022/04/21 12:16:36;;;;;;;4.53;4.13;;;;;;;16.73;41.01;96262.78;4909495;28;20413;-57
2022/04/21 12:19:29;;;;;;;4.13;3.80;;;;;;;16.82;40.50;96265.84;4940127;28;20230;-53
2022/04/21 12:22:02;;;;;;;4.40;4.10;;;;;;;17.10;40.28;96272.13;4941744;28;20226;-57
2022/04/21 12:24:37;;;;;;;4.33;4.10;;;;;;;16.86;40.19;96266.16;4933574;28;20206;-57
2022/04/21 12:27:13;;;;;;;4.33;4.03;;;;;;;17.06;40.56;96266.47;4943229;28;20767;-57
2022/04/21 12:29:50;;;;;;;4.53;4.23;;;;;;;17.15;40.71;96268.69;4944062;28;20321;-56
2022/04/21 12:32:20;;;;;;;3.77;3.57;;;;;;;17.08;39.79;96263.53;4904137;28;20215;-59